createdAt,value
2017-11-10T00:00:34.976Z,50.20
2017-11-10T00:03:02.612Z,46.65
2017-11-10T00:05:30.252Z,43.65
2017-11-10T00:07:57.937Z,44.30
2017-11-10T00:10:25.571Z,43.70
2017-11-10T00:12:53.226Z,47.95
2017-11-10T00:15:20.853Z,47.45
2017-11-10T00:17:48.506Z,47.50
2017-11-10T00:20:16.171Z,41.20
2017-11-10T00:22:43.810Z,48.03
2017-11-10T00:25:11.463Z,44.05
2017-11-10T00:27:39.088Z,44.72
2017-11-10T00:30:06.712Z,44.63
2017-11-10T00:32:34.366Z,44.22
2017-11-10T00:35:01.999Z,44.08
2017-11-10T00:37:29.663Z,42.72
2017-11-10T00:39:57.282Z,38.72
2017-11-10T00:42:24.910Z,42.65
2017-11-10T00:44:53.331Z,46.60
2017-11-10T00:47:21.761Z,40.22
2017-11-10T00:49:49.423Z,40.40
2017-11-10T00:52:17.066Z,43.47
2017-11-10T02:10:41.858Z,33.45
2017-11-10T02:13:10.274Z,29.10
2017-11-10T02:15:37.942Z,31.33
2017-11-10T02:18:05.608Z,28.58
2017-11-10T02:20:34.010Z,28.77
2017-11-10T02:23:01.676Z,28.98
2017-11-10T02:25:29.305Z,26.95
2017-11-10T02:27:57.172Z,32.28
2017-11-10T02:30:24.841Z,28.92
2017-11-10T02:32:52.499Z,28.73
2017-11-10T02:35:20.161Z,25.10
2017-11-10T02:37:48.547Z,26.87
2017-11-10T02:40:16.205Z,29.42
2017-11-10T02:42:43.863Z,28.23
2017-11-10T02:45:13.449Z,31.77
2017-11-10T02:47:41.117Z,28.12
2017-11-10T02:50:08.754Z,27.35
2017-11-10T02:52:36.418Z,30.25
2017-11-10T02:55:04.044Z,28.08
2017-11-10T02:57:31.676Z,30.77
2017-11-10T03:02:33.334Z,30.15
2017-11-10T03:05:01.007Z,29.35
2017-11-10T03:07:28.669Z,33.13
2017-11-10T03:09:57.059Z,33.45
2017-11-10T03:12:24.719Z,35.05
2017-11-10T03:14:52.349Z,35.08
2017-11-10T03:17:20.012Z,34.88
2017-11-10T03:19:47.640Z,31.90
2017-11-10T03:22:15.393Z,29.00
2017-11-10T03:24:43.087Z,33.83
2017-11-10T03:27:10.726Z,35.65
2017-11-10T03:29:38.375Z,31.48
2017-11-10T03:32:06.023Z,30.58
2017-11-10T03:34:33.654Z,34.55
2017-11-10T03:37:01.318Z,27.75
2017-11-10T03:39:28.947Z,30.25
2017-11-10T03:41:56.611Z,35.00
2017-11-10T03:44:24.251Z,34.90
2017-11-10T03:46:51.882Z,31.15
2017-11-10T03:49:19.532Z,33.03
2017-11-10T03:51:47.156Z,35.05
2017-11-10T03:54:14.839Z,39.65
2017-11-10T03:56:42.508Z,36.35
2017-11-10T03:59:10.150Z,34.80
2017-11-10T04:01:37.813Z,39.50
2017-11-10T04:04:05.443Z,41.67
2017-11-10T04:06:33.099Z,35.08
2017-11-10T04:09:00.733Z,38.38
2017-11-10T04:11:28.359Z,36.80
2017-11-10T04:13:56.045Z,35.63
2017-11-10T04:16:23.685Z,37.60
2017-11-10T04:18:51.350Z,38.17
2017-11-10T04:21:19.739Z,38.20
2017-11-10T04:23:47.374Z,33.30
2017-11-10T04:26:15.027Z,34.75
2017-11-10T04:28:42.661Z,36.28
2017-11-10T04:31:11.092Z,33.83
2017-11-10T04:33:38.726Z,35.50
2017-11-10T04:36:06.350Z,35.42
2017-11-10T04:38:34.004Z,38.40
2017-11-10T04:41:01.639Z,37.60
2017-11-10T04:43:29.300Z,32.08
2017-11-10T04:45:56.933Z,36.42
2017-11-10T04:48:24.567Z,35.75
2017-11-10T04:50:52.240Z,34.75
2017-11-10T04:53:19.867Z,35.03
2017-11-10T04:55:47.565Z,33.03
2017-11-10T04:58:15.205Z,34.28
2017-11-10T05:00:43.339Z,33.10
2017-11-10T05:03:12.976Z,32.90
2017-11-10T05:05:40.688Z,36.38
2017-11-10T05:08:08.347Z,36.53
2017-11-10T05:10:35.982Z,35.95
2017-11-10T05:13:03.622Z,32.13
2017-11-10T05:15:33.918Z,30.15
2017-11-10T05:18:01.550Z,30.67
2017-11-10T05:20:29.207Z,29.33
2017-11-10T05:22:56.828Z,33.53
2017-11-10T05:25:24.455Z,29.40
2017-11-10T05:27:52.131Z,29.92
2017-11-10T05:30:20.420Z,26.27
2017-11-10T05:32:48.079Z,31.17
2017-11-10T05:35:15.705Z,26.35
2017-11-10T05:37:43.389Z,28.87
2017-11-10T05:40:11.040Z,26.48
2017-11-10T05:42:38.656Z,25.23
2017-11-10T05:45:06.367Z,24.25
2017-11-10T05:47:33.999Z,26.35
2017-11-10T05:50:04.216Z,24.55
2017-11-10T05:52:32.802Z,30.17
2017-11-10T05:55:00.428Z,25.33
2017-11-10T05:57:28.860Z,26.70
2017-11-10T05:59:56.623Z,25.75
2017-11-10T06:02:24.243Z,23.70
2017-11-10T06:04:51.908Z,24.67
2017-11-10T06:07:19.739Z,25.90
2017-11-10T06:09:47.403Z,28.17
2017-11-10T06:12:15.265Z,24.63
2017-11-10T06:14:42.916Z,25.25
2017-11-10T06:17:10.567Z,26.12
2017-11-10T06:19:38.282Z,25.30
2017-11-10T06:22:05.959Z,23.60
2017-11-10T06:24:34.377Z,27.62
2017-11-10T06:27:02.008Z,26.52
2017-11-10T06:29:29.677Z,27.30
2017-11-10T06:31:57.383Z,27.42
2017-11-10T06:34:25.799Z,26.48
2017-11-10T06:36:53.419Z,29.77
2017-11-10T06:39:21.053Z,31.35
2017-11-10T06:41:48.724Z,27.50
2017-11-10T06:44:16.351Z,26.20
2017-11-10T06:46:44.020Z,27.70
2017-11-10T06:49:11.644Z,32.97
2017-11-10T06:51:39.289Z,28.42
2017-11-10T06:54:06.938Z,26.35
2017-11-10T06:56:34.569Z,22.58
2017-11-10T06:59:02.987Z,29.55
2017-11-10T07:01:30.609Z,26.87
2017-11-10T07:03:58.239Z,22.90
2017-11-10T07:06:27.167Z,22.83
2017-11-10T07:08:54.953Z,24.60
2017-11-10T07:11:22.604Z,24.80
2017-11-10T07:13:50.236Z,21.58
2017-11-10T07:16:17.902Z,27.45
2017-11-10T07:18:45.562Z,26.00
2017-11-10T07:21:13.191Z,23.12
2017-11-10T07:23:40.883Z,22.20
2017-11-10T07:26:08.516Z,23.12
2017-11-10T07:28:36.145Z,22.05
2017-11-10T07:31:03.808Z,23.27
2017-11-10T07:33:31.445Z,23.77
2017-11-10T07:35:59.098Z,22.33
2017-11-10T07:38:26.719Z,28.17
2017-11-10T07:40:54.367Z,24.05
2017-11-10T07:43:22.019Z,26.73
2017-11-10T07:45:49.745Z,19.55
2017-11-10T07:48:17.410Z,23.00
2017-11-10T07:50:45.059Z,21.52
2017-11-10T07:53:12.692Z,24.45
2017-11-10T07:55:40.390Z,22.45
2017-11-10T07:58:08.035Z,21.55
2017-11-10T08:00:35.700Z,24.77
2017-11-10T08:03:03.332Z,25.55
2017-11-10T08:05:31.004Z,21.62
2017-11-10T08:07:58.664Z,21.50
2017-11-10T08:10:27.092Z,24.63
2017-11-10T08:12:54.756Z,27.45
2017-11-10T08:15:22.387Z,24.08
2017-11-10T08:17:50.016Z,27.55
2017-11-10T08:20:17.673Z,24.08
2017-11-10T08:22:45.356Z,21.60
2017-11-10T08:25:13.808Z,24.08
2017-11-10T08:27:41.467Z,25.50
2017-11-10T08:30:09.091Z,26.60
2017-11-10T08:32:36.752Z,24.00
2017-11-10T08:35:04.375Z,22.73
2017-11-10T08:37:32.032Z,25.67
2017-11-10T08:39:59.655Z,28.02
2017-11-10T08:42:27.293Z,26.98
2017-11-10T08:44:54.953Z,28.08
2017-11-10T08:47:22.575Z,25.65
2017-11-10T08:49:50.237Z,24.05
2017-11-10T08:52:17.870Z,26.05
2017-11-10T08:54:45.495Z,24.05
2017-11-10T08:57:13.921Z,24.45
2017-11-10T08:59:41.544Z,23.87
2017-11-10T09:02:09.160Z,23.50
2017-11-10T09:04:36.809Z,23.80
2017-11-10T09:07:04.480Z,25.27
2017-11-10T09:09:32.144Z,23.73
2017-11-10T09:11:59.796Z,24.02
2017-11-10T09:14:27.437Z,25.48
2017-11-10T09:16:55.107Z,26.05
2017-11-10T09:19:22.733Z,21.87
2017-11-10T09:21:50.392Z,24.77
2017-11-10T09:24:18.024Z,24.83
2017-11-10T09:26:45.660Z,22.77
2017-11-10T09:29:13.920Z,24.05
2017-11-10T09:31:41.548Z,24.73
2017-11-10T09:37:31.607Z,20.00
2017-11-10T09:40:04.333Z,18.90
2017-11-10T09:42:34.589Z,19.92
2017-11-10T09:48:20.881Z,19.98
2017-11-10T09:50:54.131Z,17.62
2017-11-10T09:53:22.639Z,17.85
2017-11-10T09:55:53.973Z,17.17
2017-11-10T10:01:18.477Z,17.17
2017-11-10T10:03:48.613Z,16.45
2017-11-10T10:09:22.705Z,15.68
2017-11-10T10:11:56.169Z,17.85
2017-11-10T10:14:27.169Z,14.98
2017-11-10T10:20:04.394Z,13.60
2017-11-10T10:22:32.964Z,15.52
2017-11-10T10:25:00.596Z,15.82
2017-11-10T10:27:29.290Z,14.23
2017-11-10T10:29:56.919Z,14.10
2017-11-10T10:32:25.311Z,13.25
2017-11-10T10:34:53.116Z,14.87
2017-11-10T10:37:20.747Z,14.32
2017-11-10T10:39:48.419Z,13.23
2017-11-10T10:42:16.809Z,12.35
2017-11-10T10:44:44.443Z,13.73
2017-11-10T10:47:12.109Z,12.50
2017-11-10T10:49:39.735Z,11.95
2017-11-10T10:52:07.387Z,11.57
2017-11-10T10:54:35.016Z,11.88
2017-11-10T10:57:03.466Z,10.50
2017-11-10T10:59:31.900Z,11.38
2017-11-10T11:01:59.548Z,10.45
2017-11-10T11:04:27.224Z,10.73
2017-11-10T11:06:54.894Z,11.48
2017-11-10T11:09:22.532Z,9.90
2017-11-10T11:11:50.955Z,9.75
2017-11-10T11:14:18.598Z,10.00
2017-11-10T11:16:46.255Z,8.73
2017-11-10T11:19:13.878Z,9.27
2017-11-10T11:21:41.520Z,9.52
2017-11-10T11:24:09.183Z,10.43
2017-11-10T11:26:36.845Z,10.23
2017-11-10T11:29:04.533Z,9.95
2017-11-10T11:31:32.153Z,9.32
2017-11-10T11:33:59.771Z,7.68
2017-11-10T11:36:27.442Z,8.63
2017-11-10T11:38:55.074Z,7.97
2017-11-10T11:41:22.724Z,8.85
2017-11-10T11:43:50.397Z,8.60
2017-11-10T11:46:18.870Z,8.57
2017-11-10T11:48:47.293Z,8.85
2017-11-10T11:51:14.916Z,9.10
2017-11-10T11:53:42.562Z,8.05
2017-11-10T11:56:10.176Z,7.57
2017-11-10T11:58:38.562Z,7.75
2017-11-10T12:01:06.217Z,8.68
2017-11-10T12:03:33.833Z,8.05
2017-11-10T12:06:02.251Z,8.25
2017-11-10T12:08:29.921Z,8.55
2017-11-10T12:10:58.356Z,6.85
2017-11-10T12:13:26.006Z,7.12
2017-11-10T12:15:53.629Z,7.03
2017-11-10T12:18:21.354Z,7.95
2017-11-10T12:20:49.731Z,9.02
2017-11-10T12:23:17.380Z,6.28
2017-11-10T12:25:45.020Z,6.60
2017-11-10T12:28:12.651Z,7.00
2017-11-10T12:30:41.164Z,7.47
2017-11-10T12:33:08.806Z,5.85
2017-11-10T12:35:36.422Z,6.70
2017-11-10T12:38:04.075Z,6.80
2017-11-10T12:40:31.716Z,7.22
2017-11-10T12:42:59.371Z,6.62
2017-11-10T12:45:26.979Z,7.00
2017-11-10T12:47:54.596Z,6.65
2017-11-10T12:50:22.257Z,6.15
2017-11-10T12:52:49.879Z,5.60
2017-11-10T12:55:17.548Z,6.80
2017-11-10T12:57:45.167Z,6.65
2017-11-10T13:00:12.800Z,5.57
2017-11-10T13:02:40.461Z,6.18
2017-11-10T13:05:08.207Z,4.12
2017-11-10T13:07:36.080Z,5.10
2017-11-10T13:10:03.735Z,3.90
2017-11-10T13:12:31.375Z,5.65
2017-11-10T13:14:59.030Z,4.75
2017-11-10T13:17:26.672Z,5.45
2017-11-10T13:19:54.326Z,4.12
2017-11-10T13:22:21.959Z,4.40
2017-11-10T13:24:49.636Z,4.37
2017-11-10T13:27:17.297Z,4.07
2017-11-10T13:29:45.671Z,3.78
2017-11-10T13:32:14.098Z,3.40
2017-11-10T13:34:41.720Z,5.62
2017-11-10T13:37:09.440Z,3.65
2017-11-10T13:39:37.087Z,3.97
2017-11-10T13:42:04.715Z,3.05
2017-11-10T13:44:33.143Z,3.87
2017-11-10T13:47:00.770Z,3.00
2017-11-10T13:49:28.475Z,4.50
2017-11-10T13:51:56.888Z,3.15
2017-11-10T13:54:24.511Z,2.92
2017-11-10T13:56:52.156Z,3.20
2017-11-10T13:59:19.792Z,2.90
2017-11-10T14:01:47.404Z,2.87
2017-11-10T14:04:15.057Z,3.00
2017-11-10T14:06:42.692Z,2.50
2017-11-10T14:09:10.779Z,2.70
2017-11-10T14:11:38.399Z,2.53
2017-11-10T14:14:06.016Z,3.72
2017-11-10T14:16:33.675Z,3.42
2017-11-10T14:19:01.309Z,2.87
2017-11-10T14:21:28.969Z,2.15
2017-11-10T14:23:56.601Z,2.90
2017-11-10T14:26:24.441Z,3.45
2017-11-10T14:28:52.133Z,2.62
2017-11-10T14:31:19.743Z,2.70
2017-11-10T14:33:47.379Z,2.95
2017-11-10T14:36:15.016Z,3.58
2017-11-10T14:38:42.630Z,2.90
2017-11-10T14:41:11.047Z,2.60
2017-11-10T14:43:38.672Z,2.58
2017-11-10T14:46:06.330Z,2.80
2017-11-10T14:48:33.945Z,3.53
2017-11-10T14:51:01.560Z,3.15
2017-11-10T14:53:29.213Z,2.87
2017-11-10T14:55:56.819Z,4.60
2017-11-10T14:58:24.467Z,2.58
2017-11-10T15:00:52.071Z,2.75
2017-11-10T15:03:20.451Z,2.50
2017-11-10T15:05:48.119Z,2.00
2017-11-10T15:08:15.735Z,2.87
2017-11-10T15:10:43.430Z,2.30
2017-11-10T15:13:11.048Z,2.80
2017-11-10T15:15:38.680Z,2.67
2017-11-10T15:18:06.408Z,2.53
2017-11-10T15:20:34.799Z,3.08
2017-11-10T15:23:02.562Z,4.22
2017-11-10T15:25:30.309Z,3.25
2017-11-10T15:27:57.961Z,3.65
2017-11-10T15:30:25.611Z,3.80
2017-11-10T15:32:53.259Z,2.80
2017-11-10T15:35:20.938Z,3.08
2017-11-10T15:37:48.551Z,2.65
2017-11-10T15:40:16.447Z,3.42
2017-11-10T15:42:44.083Z,2.10
2017-11-10T15:45:11.751Z,3.05
2017-11-10T15:47:40.200Z,2.75
2017-11-10T15:50:07.856Z,2.50
2017-11-10T15:52:35.489Z,3.05
2017-11-10T15:55:03.141Z,3.10
2017-11-10T15:57:31.541Z,3.78
2017-11-10T15:59:59.207Z,3.05
2017-11-10T16:02:26.853Z,2.55
2017-11-10T16:04:54.499Z,3.53
2017-11-10T16:07:22.191Z,3.25
2017-11-10T16:09:49.809Z,2.97
2017-11-10T16:12:17.471Z,3.75
2017-11-10T16:14:45.085Z,3.85
2017-11-10T16:17:12.707Z,2.60
2017-11-10T16:19:40.384Z,2.35
2017-11-10T16:22:08.007Z,3.28
2017-11-10T16:24:35.677Z,4.12
2017-11-10T16:27:03.327Z,3.83
2017-11-10T16:29:31.045Z,4.22
2017-11-10T16:31:58.706Z,5.43
2017-11-10T16:34:27.670Z,2.78
2017-11-10T16:36:55.315Z,2.97
2017-11-10T16:39:22.936Z,4.75
2017-11-10T16:41:50.549Z,2.35
2017-11-10T16:44:18.203Z,1.92
2017-11-10T16:46:45.849Z,1.90
2017-11-10T16:49:13.515Z,2.00
2017-11-10T16:51:41.139Z,2.10
2017-11-10T16:54:08.765Z,2.70
2017-11-10T16:56:36.535Z,2.10
2017-11-10T16:59:04.176Z,1.85
2017-11-10T17:01:31.895Z,3.55
2017-11-10T17:03:59.525Z,2.08
2017-11-10T17:06:27.185Z,2.20
2017-11-10T17:08:54.911Z,2.70
2017-11-10T17:11:23.292Z,3.42
2017-11-10T17:13:50.944Z,4.25
2017-11-10T17:16:18.562Z,2.50
2017-11-10T17:18:46.945Z,4.62
2017-11-10T17:21:14.621Z,2.40
2017-11-10T17:23:42.254Z,2.60
2017-11-10T17:26:10.032Z,2.50
2017-11-10T17:28:37.647Z,2.53
2017-11-10T17:31:05.255Z,2.42
2017-11-10T17:33:32.931Z,3.65
2017-11-10T17:36:00.558Z,2.65
2017-11-10T17:38:28.975Z,2.40
2017-11-10T17:40:56.621Z,1.98
2017-11-10T17:43:24.244Z,2.00
2017-11-10T17:45:51.978Z,2.30
2017-11-10T17:48:19.693Z,2.40
2017-11-10T17:50:47.332Z,3.42
2017-11-10T17:53:14.950Z,2.58
2017-11-10T17:55:42.584Z,3.03
2017-11-10T17:58:10.228Z,3.70
2017-11-10T18:00:37.864Z,3.50
2017-11-10T18:03:05.525Z,2.75
2017-11-10T18:05:33.161Z,3.03
2017-11-10T18:08:00.777Z,3.25
2017-11-10T18:10:28.437Z,3.00
2017-11-10T18:12:56.815Z,3.47
2017-11-10T18:15:24.460Z,2.55
2017-11-10T18:17:52.076Z,3.08
2017-11-10T18:20:20.483Z,3.55
2017-11-10T18:22:48.134Z,5.53
2017-11-10T18:25:15.746Z,3.12
2017-11-10T18:27:44.151Z,3.20
2017-11-10T18:30:11.786Z,3.00
2017-11-10T18:32:39.399Z,3.97
2017-11-10T18:35:07.815Z,4.07
2017-11-10T18:37:35.443Z,4.20
2017-11-10T18:40:03.101Z,4.97
2017-11-10T18:42:30.714Z,5.30
2017-11-10T18:44:58.355Z,4.57
2017-11-10T18:47:26.782Z,3.33
2017-11-10T18:49:54.597Z,3.30
2017-11-10T18:52:22.742Z,2.85
2017-11-10T18:54:56.008Z,2.80
2017-11-10T18:57:23.664Z,2.80
2017-11-10T18:59:51.275Z,2.60
2017-11-10T19:02:18.900Z,2.20
2017-11-10T19:04:46.544Z,3.12
2017-11-10T19:07:14.180Z,2.70
2017-11-10T19:09:41.836Z,3.10
2017-11-10T19:12:09.772Z,3.28
2017-11-10T19:14:37.394Z,2.90
2017-11-10T19:17:05.054Z,3.70
2017-11-10T19:19:32.675Z,3.67
2017-11-10T19:22:01.092Z,2.75
2017-11-10T19:24:28.729Z,3.40
2017-11-10T19:26:56.385Z,3.95
2017-11-10T19:29:24.063Z,5.15
2017-11-10T19:31:51.688Z,3.50
2017-11-10T19:34:19.351Z,3.22
2017-11-10T19:36:46.989Z,3.67
2017-11-10T19:39:14.811Z,2.97
2017-11-10T19:41:42.459Z,4.93
2017-11-10T19:44:10.111Z,3.30
2017-11-10T19:46:37.759Z,2.95
2017-11-10T19:49:05.367Z,2.62
2017-11-10T19:51:33.008Z,9.32
2017-11-10T19:54:01.422Z,2.80
2017-11-10T19:56:29.054Z,4.82
2017-11-10T19:58:56.699Z,3.85
2017-11-10T20:01:24.323Z,3.00
2017-11-10T20:03:51.947Z,4.97
2017-11-10T20:06:20.359Z,4.22
2017-11-10T20:08:47.967Z,2.80
2017-11-10T20:11:16.380Z,3.37
2017-11-10T20:13:43.996Z,3.37
2017-11-10T20:16:11.611Z,5.30
2017-11-10T20:18:40.029Z,3.17
2017-11-10T20:21:07.667Z,3.85
2017-11-10T20:23:35.320Z,4.45
2017-11-10T20:26:02.948Z,4.60
2017-11-10T20:28:30.662Z,3.87
2017-11-10T20:30:58.372Z,5.18
2017-11-10T20:33:25.994Z,3.45
2017-11-10T20:35:53.637Z,2.28
2017-11-10T20:38:21.811Z,7.00
2017-11-10T20:40:49.429Z,4.85
2017-11-10T20:43:18.036Z,2.00
2017-11-10T20:45:45.650Z,5.25
2017-11-10T20:48:13.566Z,4.85
2017-11-10T20:50:41.185Z,5.68
2017-11-10T20:53:08.806Z,4.03
2017-11-10T20:55:36.475Z,2.72
2017-11-10T20:58:04.104Z,4.87
2017-11-10T21:00:31.855Z,4.80
2017-11-10T21:02:59.493Z,4.65
2017-11-10T21:05:27.112Z,2.25
2017-11-10T21:07:54.770Z,3.85
2017-11-10T21:10:22.387Z,4.62
2017-11-10T21:12:50.437Z,4.03
2017-11-10T21:15:18.143Z,3.00
2017-11-10T21:17:45.778Z,3.70
2017-11-10T21:20:13.579Z,3.45
2017-11-10T21:22:41.311Z,2.80
2017-11-10T21:25:08.959Z,3.08
2017-11-10T21:27:36.591Z,1.60
2017-11-10T21:30:04.206Z,7.30
2017-11-10T21:32:31.875Z,2.90
2017-11-10T21:34:59.507Z,6.50
2017-11-10T21:37:27.162Z,5.82
2017-11-10T21:39:54.795Z,3.22
2017-11-10T21:42:22.406Z,5.05
2017-11-10T21:44:50.057Z,4.43
2017-11-10T21:47:17.728Z,6.75
2017-11-10T21:49:45.383Z,4.72
2017-11-10T21:52:12.997Z,3.85
2017-11-10T21:54:41.370Z,5.55
2017-11-10T21:57:09.068Z,2.75
2017-11-10T21:59:36.695Z,3.15
2017-11-10T22:02:04.459Z,4.72
2017-11-10T22:04:32.119Z,4.25
2017-11-10T22:06:59.736Z,2.30
2017-11-10T22:09:27.388Z,5.68
2017-11-10T22:11:55.018Z,5.55
2017-11-10T22:14:22.708Z,2.78
2017-11-10T22:16:50.311Z,8.45
2017-11-10T22:19:17.928Z,3.25
2017-11-10T22:21:45.589Z,7.28
2017-11-10T22:24:13.984Z,5.05
2017-11-10T22:26:41.636Z,3.45
2017-11-10T22:29:09.268Z,4.07
2017-11-10T22:31:36.887Z,4.57
2017-11-10T22:34:05.318Z,4.25
2017-11-10T22:36:32.934Z,6.40
2017-11-10T22:39:00.584Z,4.97
2017-11-10T22:41:28.200Z,4.95
2017-11-10T22:43:55.832Z,5.15
2017-11-10T22:46:24.264Z,8.60
2017-11-10T22:48:51.918Z,3.83
2017-11-10T22:51:19.569Z,6.15
2017-11-10T22:53:47.201Z,4.78
2017-11-10T22:56:14.831Z,7.85
2017-11-10T22:58:42.483Z,5.65
2017-11-10T23:01:10.639Z,8.25
2017-11-10T23:03:38.307Z,6.03
2017-11-10T23:06:05.940Z,4.55
2017-11-10T23:08:33.567Z,4.50
2017-11-10T23:11:01.220Z,4.57
2017-11-10T23:13:28.837Z,6.35
2017-11-10T23:15:56.500Z,8.48
2017-11-10T23:18:24.123Z,5.37
2017-11-10T23:20:52.513Z,4.30
2017-11-10T23:23:20.159Z,5.75
2017-11-10T23:25:47.772Z,4.15
2017-11-10T23:28:16.200Z,6.68
2017-11-10T23:30:43.809Z,2.67
2017-11-10T23:33:11.441Z,4.15
2017-11-10T23:35:39.846Z,4.78
2017-11-10T23:38:07.452Z,4.00
2017-11-10T23:40:35.117Z,3.45
2017-11-10T23:43:02.736Z,5.85
2017-11-10T23:45:31.140Z,2.65
2017-11-10T23:47:58.795Z,4.00
2017-11-10T23:50:26.431Z,9.85
2017-11-10T23:52:54.079Z,4.85
2017-11-10T23:55:21.696Z,5.57
2017-11-10T23:57:49.310Z,5.28
